createdAt,value
2017-08-07T00:00:10.519Z,15.00
2017-08-07T00:02:38.038Z,15.00
2017-08-07T00:05:06.324Z,15.00
2017-08-07T00:07:33.815Z,14.90
2017-08-07T00:10:01.339Z,14.90
2017-08-07T00:12:28.855Z,14.90
2017-08-07T00:14:56.383Z,14.90
2017-08-07T00:17:23.874Z,14.90
2017-08-07T00:19:51.402Z,14.90
2017-08-07T00:22:18.901Z,14.80
2017-08-07T00:24:46.424Z,14.80
2017-08-07T00:27:14.694Z,14.80
2017-08-07T00:32:11.072Z,14.70
2017-08-07T00:34:38.571Z,14.70
2017-08-07T00:37:07.599Z,14.60
2017-08-07T00:39:35.119Z,14.60
2017-08-07T00:42:02.647Z,14.50
2017-08-07T00:44:30.143Z,14.50
2017-08-07T00:46:58.431Z,14.50
2017-08-07T00:49:25.935Z,14.50
2017-08-07T00:51:53.466Z,14.40
2017-08-07T00:54:20.955Z,14.40
2017-08-07T00:56:48.487Z,14.40
2017-08-07T00:59:16.755Z,14.40
2017-08-07T01:01:44.280Z,14.30
2017-08-07T01:04:11.800Z,14.30
2017-08-07T01:06:39.293Z,14.30
2017-08-07T01:09:06.819Z,14.30
2017-08-07T01:11:34.320Z,14.30
2017-08-07T01:14:01.839Z,14.30
2017-08-07T01:16:29.736Z,14.40
2017-08-07T01:18:57.271Z,14.40
2017-08-07T01:21:24.775Z,14.40
2017-08-07T01:23:52.313Z,14.30
2017-08-07T01:26:19.911Z,14.30
2017-08-07T01:28:47.431Z,14.20
2017-08-07T01:31:14.930Z,14.20
2017-08-07T01:33:42.859Z,14.20
2017-08-07T01:36:10.364Z,14.20
2017-08-07T01:38:39.414Z,14.10
2017-08-07T01:41:06.922Z,14.10
2017-08-07T01:43:34.421Z,14.10
2017-08-07T01:46:02.339Z,14.00
2017-08-07T01:48:29.844Z,14.00
2017-08-07T01:50:57.367Z,14.00
2017-08-07T01:53:25.264Z,14.00
2017-08-07T01:55:52.816Z,14.00
2017-08-07T01:58:20.320Z,13.90
2017-08-07T02:03:17.807Z,13.90
2017-08-07T02:05:45.332Z,13.90
2017-08-07T02:08:12.856Z,13.90
2017-08-07T02:10:41.156Z,13.80
2017-08-07T02:13:08.662Z,13.80
2017-08-07T02:15:36.267Z,13.80
2017-08-07T02:18:03.795Z,13.70
2017-08-07T02:20:31.304Z,13.70
2017-08-07T02:23:00.334Z,13.70
2017-08-07T02:25:27.843Z,13.70
2017-08-07T02:27:55.774Z,13.60
2017-08-07T02:30:23.272Z,13.50
2017-08-07T02:32:50.795Z,13.50
2017-08-07T02:35:18.300Z,13.50
2017-08-07T02:37:45.839Z,13.40
2017-08-07T02:40:13.371Z,13.50
2017-08-07T02:42:40.899Z,13.40
2017-08-07T02:45:08.415Z,13.40
2017-08-07T02:47:35.910Z,13.50
2017-08-07T02:50:03.840Z,13.50
2017-08-07T02:52:31.347Z,13.50
2017-08-07T02:54:58.868Z,13.60
2017-08-07T02:57:26.370Z,13.60
2017-08-07T02:59:53.901Z,13.60
2017-08-07T03:02:21.408Z,13.50
2017-08-07T03:04:48.940Z,13.50
2017-08-07T03:07:17.215Z,13.50
2017-08-07T03:09:45.519Z,13.40
2017-08-07T03:12:13.036Z,13.40
2017-08-07T03:14:40.567Z,13.40
2017-08-07T03:17:08.465Z,13.40
2017-08-07T03:19:36.804Z,13.30
2017-08-07T03:22:04.312Z,13.30
2017-08-07T03:24:31.827Z,13.30
2017-08-07T03:26:59.360Z,13.20
2017-08-07T03:29:27.631Z,13.20
2017-08-07T03:31:55.186Z,13.20
2017-08-07T03:34:22.683Z,13.10
2017-08-07T03:36:51.710Z,13.10
2017-08-07T03:39:20.356Z,13.00
2017-08-07T03:41:47.911Z,13.00
2017-08-07T03:44:15.416Z,13.00
2017-08-07T03:46:42.952Z,13.00
2017-08-07T03:49:10.468Z,13.00
2017-08-07T03:51:38.766Z,13.00
2017-08-07T03:54:06.267Z,13.00
2017-08-07T03:56:34.579Z,13.10
2017-08-07T03:59:02.088Z,13.10
2017-08-07T04:01:29.992Z,13.20
2017-08-07T04:03:57.516Z,13.30
2017-08-07T04:06:25.015Z,13.20
2017-08-07T04:08:52.548Z,13.20
2017-08-07T04:11:21.182Z,13.20
2017-08-07T04:13:48.711Z,13.20
2017-08-07T04:16:17.715Z,13.20
2017-08-07T04:18:45.252Z,13.30
2017-08-07T04:21:13.526Z,13.30
2017-08-07T04:23:41.039Z,13.30
2017-08-07T04:26:08.531Z,13.30
2017-08-07T04:28:36.051Z,13.40
2017-08-07T04:31:03.552Z,13.40
2017-08-07T04:33:31.855Z,13.40
2017-08-07T04:35:59.342Z,13.40
2017-08-07T04:38:26.834Z,13.50
2017-08-07T04:40:55.124Z,13.50
2017-08-07T04:43:23.019Z,13.50
2017-08-07T04:45:50.548Z,13.50
2017-08-07T04:48:18.131Z,13.60
2017-08-07T04:50:46.047Z,13.60
2017-08-07T04:53:13.635Z,13.50
2017-08-07T04:55:41.295Z,13.40
2017-08-07T04:58:08.811Z,13.30
2017-08-07T05:00:36.415Z,13.20
2017-08-07T05:03:05.103Z,13.20
2017-08-07T05:05:34.436Z,13.20
2017-08-07T05:08:02.731Z,13.30
2017-08-07T05:10:31.150Z,13.40
2017-08-07T05:12:58.812Z,13.40
2017-08-07T05:15:29.139Z,13.50
2017-08-07T05:17:56.796Z,13.50
2017-08-07T05:20:24.339Z,13.60
2017-08-07T05:22:52.269Z,13.70
2017-08-07T05:25:20.920Z,13.80
2017-08-07T05:27:49.595Z,13.90
2017-08-07T05:30:17.111Z,13.90
2017-08-07T05:32:46.620Z,13.90
2017-08-07T05:35:14.128Z,14.10
2017-08-07T05:37:43.147Z,14.00
2017-08-07T05:42:41.471Z,14.10
2017-08-07T05:45:09.036Z,14.20
2017-08-07T05:47:36.690Z,14.30
2017-08-07T05:50:04.223Z,14.50
2017-08-07T05:52:31.736Z,14.50
2017-08-07T05:54:59.271Z,14.50
2017-08-07T05:57:27.552Z,14.60
2017-08-07T05:59:55.092Z,14.60
2017-08-07T06:02:23.827Z,14.70
2017-08-07T06:04:51.354Z,14.70
2017-08-07T06:07:18.849Z,14.90
2017-08-07T06:09:46.360Z,15.00
2017-08-07T06:12:13.899Z,15.30
2017-08-07T06:14:41.548Z,15.70
2017-08-07T06:17:10.214Z,16.60
2017-08-07T06:19:39.227Z,17.70
2017-08-07T06:22:07.181Z,18.40
2017-08-07T06:27:05.212Z,19.80
2017-08-07T06:29:34.223Z,21.00
2017-08-07T06:32:03.249Z,21.90
2017-08-07T06:34:31.525Z,22.50
2017-08-07T06:36:59.085Z,23.00
2017-08-07T06:39:26.595Z,23.60
2017-08-07T06:41:54.976Z,24.10
2017-08-07T06:44:23.983Z,24.00
2017-08-07T06:46:52.667Z,23.40
2017-08-07T06:49:20.654Z,23.10
2017-08-07T06:51:49.299Z,22.70
2017-08-07T06:54:17.603Z,22.70
2017-08-07T06:56:45.139Z,22.50
2017-08-07T06:59:12.675Z,22.30
2017-08-07T07:01:40.975Z,22.00
2017-08-07T07:04:09.057Z,22.00
2017-08-07T07:06:36.570Z,21.70
2017-08-07T07:09:04.880Z,21.30
2017-08-07T07:11:32.394Z,21.10
2017-08-07T07:14:00.101Z,21.00
2017-08-07T07:16:28.385Z,21.10
2017-08-07T07:18:55.935Z,20.80
2017-08-07T07:21:25.126Z,20.70
2017-08-07T07:23:52.757Z,20.70
2017-08-07T07:26:21.054Z,20.80
2017-08-07T07:28:49.691Z,20.70
2017-08-07T07:31:17.992Z,20.80
2017-08-07T07:33:45.501Z,20.50
2017-08-07T07:36:13.852Z,20.30
2017-08-07T07:38:41.363Z,20.10
2017-08-07T07:41:08.899Z,20.00
2017-08-07T07:43:36.425Z,19.80
2017-08-07T07:46:04.699Z,19.60
2017-08-07T07:48:32.214Z,19.40
2017-08-07T07:50:59.842Z,19.30
2017-08-07T07:53:27.343Z,19.00
2017-08-07T07:55:54.867Z,19.10
2017-08-07T07:58:23.140Z,19.40
2017-08-07T08:00:51.446Z,19.50
2017-08-07T08:03:19.723Z,19.70
2017-08-07T08:08:16.143Z,19.90
2017-08-07T08:10:43.836Z,19.90
2017-08-07T08:13:11.366Z,20.10
2017-08-07T08:15:38.926Z,20.30
2017-08-07T08:18:06.590Z,20.50
2017-08-07T08:20:35.272Z,20.60
2017-08-07T08:23:02.938Z,20.80
2017-08-07T08:25:30.459Z,20.70
2017-08-07T08:27:58.747Z,20.50
2017-08-07T08:30:26.257Z,20.50
2017-08-07T08:32:53.791Z,20.80
2017-08-07T08:35:21.311Z,21.30
2017-08-07T08:37:48.862Z,21.40
2017-08-07T08:40:16.362Z,21.50
2017-08-07T08:42:43.855Z,21.60
2017-08-07T08:45:12.156Z,21.50
2017-08-07T08:47:39.736Z,21.80
2017-08-07T08:50:07.394Z,22.10
2017-08-07T08:52:35.052Z,22.60
2017-08-07T08:55:02.574Z,22.70
2017-08-07T08:57:30.983Z,23.20
2017-08-07T08:59:58.506Z,23.50
2017-08-07T09:02:27.331Z,23.40
2017-08-07T09:04:55.615Z,23.80
2017-08-07T09:07:23.572Z,24.20
2017-08-07T09:09:51.103Z,24.20
2017-08-07T09:12:18.767Z,24.20
2017-08-07T09:14:46.435Z,24.60
2017-08-07T09:17:13.960Z,24.70
2017-08-07T09:19:42.226Z,24.80
2017-08-07T09:22:10.644Z,24.70
2017-08-07T09:24:38.139Z,24.30
2017-08-07T09:27:05.664Z,23.90
2017-08-07T09:29:33.215Z,23.70
2017-08-07T09:32:00.745Z,23.50
2017-08-07T09:34:28.275Z,22.80
2017-08-07T09:36:56.953Z,22.60
2017-08-07T09:39:24.456Z,22.60
2017-08-07T09:41:51.979Z,22.70
2017-08-07T09:44:20.256Z,23.10
2017-08-07T09:46:48.900Z,22.90
2017-08-07T09:49:16.423Z,22.50
2017-08-07T09:51:43.949Z,22.10
2017-08-07T09:54:11.475Z,22.00
2017-08-07T09:56:38.976Z,22.20
2017-08-07T09:59:06.492Z,22.60
2017-08-07T10:01:34.766Z,23.00
2017-08-07T10:04:02.295Z,22.80
2017-08-07T10:06:29.815Z,22.50
2017-08-07T10:08:57.330Z,22.20
2017-08-07T10:13:53.729Z,23.00
2017-08-07T10:16:21.251Z,23.60
2017-08-07T10:18:48.747Z,24.00
2017-08-07T10:21:16.267Z,24.20
2017-08-07T10:23:44.543Z,24.60
2017-08-07T10:26:12.067Z,23.90
2017-08-07T10:28:39.581Z,23.90
2017-08-07T10:31:07.120Z,23.90
2017-08-07T10:36:03.472Z,24.10
2017-08-07T10:38:31.010Z,24.10
2017-08-07T10:40:58.521Z,24.00
2017-08-07T10:43:26.048Z,24.20
2017-08-07T10:45:53.948Z,24.30
2017-08-07T10:48:21.481Z,23.90
2017-08-07T10:50:48.984Z,23.40
2017-08-07T10:53:16.511Z,22.70
2017-08-07T10:55:44.011Z,22.40
2017-08-07T10:58:11.527Z,22.30
2017-08-07T11:00:39.048Z,22.30
2017-08-07T11:03:06.987Z,22.20
2017-08-07T11:05:34.495Z,22.00
2017-08-07T11:08:01.999Z,21.80
2017-08-07T11:10:29.541Z,21.60
2017-08-07T11:12:57.821Z,21.30
2017-08-07T11:15:25.348Z,21.30
2017-08-07T11:17:52.852Z,21.50
2017-08-07T11:20:20.379Z,21.60
2017-08-07T11:22:48.639Z,21.80
2017-08-07T11:25:16.926Z,21.80
2017-08-07T11:27:45.196Z,22.10
2017-08-07T11:30:14.230Z,22.20
2017-08-07T11:32:41.884Z,22.00
2017-08-07T11:35:09.415Z,22.10
2017-08-07T11:37:36.907Z,22.30
2017-08-07T11:40:05.173Z,22.50
2017-08-07T11:42:32.695Z,22.60
2017-08-07T11:45:00.599Z,22.50
2017-08-07T11:47:28.142Z,22.30
2017-08-07T11:49:55.698Z,22.30
2017-08-07T11:52:23.364Z,22.40
2017-08-07T11:54:51.632Z,22.40
2017-08-07T11:57:20.217Z,22.50
2017-08-07T11:59:48.504Z,22.50
2017-08-07T12:02:16.041Z,22.30
2017-08-07T12:04:43.546Z,22.30
2017-08-07T12:07:11.143Z,22.30
2017-08-07T12:09:38.651Z,22.30
2017-08-07T12:12:07.496Z,22.30
2017-08-07T12:14:35.000Z,22.30
2017-08-07T12:17:03.651Z,22.00
2017-08-07T12:19:31.211Z,21.80
2017-08-07T12:21:58.714Z,21.60
2017-08-07T12:24:26.413Z,21.70
2017-08-07T12:26:53.939Z,22.00
2017-08-07T12:29:21.459Z,22.30
2017-08-07T12:31:48.955Z,22.40
2017-08-07T12:34:16.897Z,22.40
2017-08-07T12:36:45.166Z,22.30
2017-08-07T12:41:42.326Z,22.40
2017-08-07T12:44:10.747Z,22.40
2017-08-07T12:46:39.019Z,22.30
2017-08-07T12:49:06.684Z,22.40
2017-08-07T12:51:34.240Z,22.50
2017-08-07T12:54:02.150Z,22.50
2017-08-07T12:56:29.679Z,22.60
2017-08-07T12:58:57.739Z,22.70
2017-08-07T13:01:26.198Z,22.70
2017-08-07T13:03:54.463Z,22.80
2017-08-07T13:06:22.389Z,22.80
2017-08-07T13:08:50.676Z,22.70
2017-08-07T13:13:48.087Z,22.70
2017-08-07T13:16:15.613Z,22.70
2017-08-07T13:21:12.401Z,23.10
2017-08-07T13:23:39.925Z,23.20
2017-08-07T13:26:07.489Z,23.20
2017-08-07T13:28:35.040Z,23.20
2017-08-07T13:31:02.611Z,23.10
2017-08-07T13:33:30.140Z,23.10
2017-08-07T13:35:57.656Z,23.10
2017-08-07T13:38:25.188Z,23.10
2017-08-07T13:40:52.708Z,23.10
2017-08-07T13:43:20.327Z,23.10
2017-08-07T13:45:47.817Z,23.10
2017-08-07T13:48:15.387Z,23.20
2017-08-07T13:50:43.050Z,23.20
2017-08-07T13:53:10.712Z,23.20
2017-08-07T13:55:38.365Z,23.20
2017-08-07T13:58:06.028Z,23.20
2017-08-07T14:00:33.555Z,23.20
2017-08-07T14:03:01.832Z,23.20
2017-08-07T14:05:30.650Z,23.20
2017-08-07T14:07:59.300Z,23.30
2017-08-07T14:10:27.002Z,23.30
2017-08-07T14:12:54.664Z,23.40
2017-08-07T14:15:22.320Z,23.30
2017-08-07T14:17:49.955Z,23.20
2017-08-07T14:20:17.488Z,23.10
2017-08-07T14:22:45.752Z,23.10
2017-08-07T14:25:14.021Z,22.90
2017-08-07T14:27:42.445Z,22.90
2017-08-07T14:30:09.945Z,23.00
2017-08-07T14:32:37.464Z,22.90
2017-08-07T14:35:05.023Z,22.80
2017-08-07T14:37:32.555Z,22.70
2017-08-07T14:40:00.448Z,22.80
2017-08-07T14:42:27.975Z,22.70
2017-08-07T14:44:55.646Z,22.70
2017-08-07T14:47:23.227Z,22.60
2017-08-07T14:49:51.500Z,22.70
2017-08-07T14:52:19.013Z,21.50
2017-08-07T14:54:46.699Z,22.70
2017-08-07T14:57:14.203Z,22.70
2017-08-07T14:59:42.492Z,22.80
2017-08-07T15:02:10.765Z,22.90
2017-08-07T15:04:39.067Z,22.90
2017-08-07T15:07:06.623Z,22.80
2017-08-07T15:09:34.915Z,22.80
2017-08-07T15:12:02.427Z,22.70
2017-08-07T15:16:58.919Z,22.70
2017-08-07T15:19:26.464Z,22.70
2017-08-07T15:21:55.103Z,22.60
2017-08-07T15:24:23.743Z,22.60
2017-08-07T15:26:52.204Z,22.60
2017-08-07T15:29:19.848Z,22.60
2017-08-07T15:31:47.915Z,22.70
2017-08-07T15:34:15.579Z,22.70
2017-08-07T15:36:44.242Z,22.70
2017-08-07T15:39:11.753Z,22.60
2017-08-07T15:41:39.278Z,22.60
2017-08-07T15:44:06.843Z,22.60
2017-08-07T15:46:34.503Z,22.60
2017-08-07T15:49:02.164Z,22.60
2017-08-07T15:51:29.812Z,22.60
2017-08-07T15:53:57.338Z,22.60
2017-08-07T15:56:25.747Z,22.60
2017-08-07T15:58:53.688Z,22.60
2017-08-07T16:01:21.607Z,22.60
2017-08-07T16:03:49.911Z,22.60
2017-08-07T16:06:17.430Z,22.60
2017-08-07T16:08:44.970Z,22.50
2017-08-07T16:11:13.244Z,22.60
2017-08-07T16:16:10.060Z,22.50
2017-08-07T16:18:38.719Z,22.40
2017-08-07T16:21:06.268Z,22.30
2017-08-07T16:23:33.880Z,22.20
2017-08-07T16:28:30.287Z,22.40
2017-08-07T16:30:57.843Z,22.30
2017-08-07T16:35:54.221Z,22.30
2017-08-07T16:38:21.724Z,22.30
2017-08-07T16:40:50.411Z,22.10
2017-08-07T16:43:18.708Z,22.20
2017-08-07T16:45:47.371Z,22.40
2017-08-07T16:48:15.670Z,22.40
2017-08-07T16:50:43.174Z,22.30
2017-08-07T16:53:10.696Z,22.30
2017-08-07T16:55:38.295Z,22.30
2017-08-07T16:58:05.808Z,22.20
2017-08-07T17:00:33.713Z,22.10
2017-08-07T17:03:01.240Z,22.10
2017-08-07T17:05:28.748Z,22.00
2017-08-07T17:07:57.048Z,22.00
2017-08-07T17:10:24.580Z,22.00
2017-08-07T17:12:52.882Z,21.90
2017-08-07T17:15:20.404Z,21.90
2017-08-07T17:17:47.901Z,21.90
2017-08-07T17:20:16.212Z,21.80
2017-08-07T17:22:43.704Z,21.80
2017-08-07T17:25:11.225Z,21.80
2017-08-07T17:27:39.562Z,21.80
2017-08-07T17:30:07.847Z,21.80
2017-08-07T17:32:35.744Z,21.80
2017-08-07T17:35:03.687Z,21.70
2017-08-07T17:37:31.991Z,21.70
2017-08-07T17:40:00.312Z,21.60
2017-08-07T17:42:28.447Z,21.70
2017-08-07T17:44:57.128Z,21.60
2017-08-07T17:49:54.425Z,21.60
2017-08-07T17:52:21.948Z,21.50
2017-08-07T17:54:50.358Z,21.50
2017-08-07T17:57:19.012Z,21.40
2017-08-07T17:59:48.042Z,21.40
2017-08-07T18:02:15.667Z,21.30
2017-08-07T18:04:43.947Z,21.30
2017-08-07T18:07:12.979Z,21.40
2017-08-07T18:09:40.530Z,21.20
2017-08-07T18:14:36.923Z,21.10
2017-08-07T18:17:05.228Z,21.10
2017-08-07T18:19:32.747Z,21.00
2017-08-07T18:22:01.059Z,20.80
2017-08-07T18:24:28.556Z,20.80
2017-08-07T18:26:56.388Z,20.80
2017-08-07T18:29:23.931Z,20.80
2017-08-07T18:31:51.444Z,20.70
2017-08-07T18:34:20.467Z,20.70
2017-08-07T18:36:47.984Z,20.60
2017-08-07T18:39:16.279Z,20.50
2017-08-07T18:41:44.190Z,20.50
2017-08-07T18:44:12.511Z,20.50
2017-08-07T18:46:41.163Z,20.40
2017-08-07T18:49:08.695Z,20.30
2017-08-07T18:51:36.967Z,20.30
2017-08-07T18:59:03.008Z,20.20
2017-08-07T19:01:30.511Z,20.20
2017-08-07T19:06:26.917Z,20.00
2017-08-07T19:08:54.435Z,20.00
2017-08-07T19:11:22.730Z,19.90
2017-08-07T19:13:50.240Z,19.90
2017-08-07T19:16:18.531Z,19.90
2017-08-07T19:18:47.200Z,19.90
2017-08-07T19:23:44.371Z,19.80
2017-08-07T19:26:11.907Z,19.70
2017-08-07T19:28:39.420Z,19.70
2017-08-07T19:33:35.831Z,19.70
2017-08-07T19:36:03.392Z,19.60
2017-08-07T19:38:30.931Z,19.50
2017-08-07T19:40:59.947Z,19.40
2017-08-07T19:43:27.501Z,19.30
2017-08-07T19:45:55.016Z,19.20
2017-08-07T19:48:22.543Z,19.20
2017-08-07T19:50:50.059Z,19.20
2017-08-07T19:53:17.590Z,19.20
2017-08-07T19:55:45.131Z,19.30
2017-08-07T19:58:13.063Z,19.40
2017-08-07T20:00:40.574Z,19.40
2017-08-07T20:03:08.083Z,19.30
2017-08-07T20:05:35.619Z,19.30
2017-08-07T20:08:03.196Z,19.30
2017-08-07T20:10:30.737Z,19.20
2017-08-07T20:15:27.871Z,19.20
2017-08-07T20:17:55.387Z,19.20
2017-08-07T20:20:23.364Z,19.20
2017-08-07T20:22:50.891Z,19.20
2017-08-07T20:25:18.402Z,19.10
2017-08-07T20:30:14.793Z,19.00
2017-08-07T20:32:42.313Z,19.00
2017-08-07T20:35:09.810Z,19.10
2017-08-07T20:37:37.339Z,19.00
2017-08-07T20:40:04.851Z,19.00
2017-08-07T20:42:33.516Z,19.00
2017-08-07T20:45:01.030Z,19.00
2017-08-07T20:47:28.559Z,19.00
2017-08-07T20:49:56.070Z,18.90
2017-08-07T20:52:24.733Z,18.80
2017-08-07T20:54:52.236Z,18.80
2017-08-07T20:59:49.402Z,18.60
2017-08-07T21:02:17.671Z,18.60
2017-08-07T21:04:46.700Z,18.50
2017-08-07T21:07:14.255Z,18.50
2017-08-07T21:09:43.309Z,18.40
2017-08-07T21:12:11.571Z,18.40
2017-08-07T21:14:39.495Z,18.40
2017-08-07T21:19:35.911Z,18.40
2017-08-07T21:22:04.192Z,18.30
2017-08-07T21:24:31.729Z,18.20
2017-08-07T21:26:59.267Z,18.10
2017-08-07T21:29:26.802Z,18.10
2017-08-07T21:31:55.076Z,18.10
2017-08-07T21:34:22.606Z,18.00
2017-08-07T21:36:50.903Z,18.00
2017-08-07T21:39:18.403Z,18.00
2017-08-07T21:41:47.434Z,18.00
2017-08-07T21:49:13.069Z,17.90
2017-08-07T21:51:40.603Z,18.00
2017-08-07T21:54:08.099Z,18.00
2017-08-07T21:56:36.374Z,17.90
2017-08-07T21:59:03.901Z,17.90
2017-08-07T22:01:31.427Z,17.90
2017-08-07T22:03:58.948Z,17.80
2017-08-07T22:06:26.474Z,17.80
2017-08-07T22:08:54.811Z,17.70
2017-08-07T22:11:22.310Z,17.80
2017-08-07T22:13:49.931Z,17.70
2017-08-07T22:16:17.427Z,17.60
2017-08-07T22:21:13.813Z,17.50
2017-08-07T22:23:42.115Z,17.60
2017-08-07T22:26:09.611Z,17.50
2017-08-07T22:28:38.643Z,17.40
2017-08-07T22:31:06.912Z,17.50
2017-08-07T22:33:34.822Z,17.40
2017-08-07T22:36:02.343Z,17.40
2017-08-07T22:38:29.894Z,17.30
2017-08-07T22:40:57.399Z,17.30
2017-08-07T22:43:24.912Z,17.30
2017-08-07T22:45:52.435Z,17.30
2017-08-07T22:48:19.935Z,17.30
2017-08-07T22:50:47.851Z,17.30
2017-08-07T22:53:15.391Z,17.30
2017-08-07T22:55:42.935Z,17.20
2017-08-07T22:58:10.444Z,17.20
2017-08-07T23:00:37.970Z,17.10
2017-08-07T23:03:06.248Z,17.10
2017-08-07T23:05:33.772Z,17.20
2017-08-07T23:08:01.279Z,17.20
2017-08-07T23:10:28.820Z,17.10
2017-08-07T23:12:56.316Z,17.00
2017-08-07T23:15:23.854Z,17.00
2017-08-07T23:17:51.365Z,17.00
2017-08-07T23:20:18.887Z,16.90
2017-08-07T23:22:46.788Z,16.90
2017-08-07T23:25:14.317Z,16.90
2017-08-07T23:27:41.827Z,16.90
2017-08-07T23:30:10.465Z,16.90
2017-08-07T23:32:37.998Z,16.90
2017-08-07T23:35:05.509Z,16.80
2017-08-07T23:37:33.030Z,16.80
2017-08-07T23:40:00.544Z,16.80
2017-08-07T23:42:28.814Z,16.90
2017-08-07T23:44:57.078Z,16.90
2017-08-07T23:47:25.371Z,16.90
2017-08-07T23:49:53.647Z,17.00
2017-08-07T23:52:21.171Z,16.90
2017-08-07T23:54:48.668Z,16.80
2017-08-07T23:57:16.187Z,16.80
2017-08-07T23:59:44.447Z,16.70
